Time;durP1;ratioP1;P1;durP2;ratioP2;P2;SDS_P1;SDS_P2;PMS_P1;PMS_P2;Temp;Humidity;BMP_temperature;BMP_pressure;BME280_temperature;BME280_humidity;BME280_pressure;Samples;Min_cycle;Max_cycle;Signal;HPM_P1;HPM_P2
2023/04/06 00:01:51;;;;;;;6.35;5.50;;;;;;;;;;12779054;23;20518;-76
2023/04/06 00:06:52;;;;;;;8.75;5.90;;;;;;;;;;12783989;23;20040;-75
2023/04/06 00:11:55;;;;;;;8.00;5.68;;;;;;;;;;12788103;23;20052;-74
2023/04/06 00:16:55;;;;;;;8.02;5.47;;;;;;;;;;12787455;23;20721;-76
2023/04/06 00:21:58;;;;;;;6.25;5.20;;;;;;;;;;12792087;23;20376;-76
2023/04/06 00:26:58;;;;;;;7.25;5.30;;;;;;;;;;12784013;23;20009;-75
2023/04/06 00:31:59;;;;;;;8.63;5.72;;;;;;;;;;12782427;23;20481;-75
2023/04/06 00:36:59;;;;;;;7.57;5.30;;;;;;;;;;12779091;23;20044;-77
2023/04/06 00:42:00;;;;;;;6.68;5.40;;;;;;;;;;12779694;23;20066;-75
2023/04/06 00:47:00;;;;;;;7.22;5.40;;;;;;;;;;12777979;23;20720;-75
2023/04/06 00:52:01;;;;;;;6.97;5.78;;;;;;;;;;12780335;23;20043;-77
2023/04/06 00:57:01;;;;;;;7.35;5.93;;;;;;;;;;12780337;23;20088;-74
2023/04/06 01:02:04;;;;;;;5.68;5.13;;;;;;;;;;12777594;23;20602;-75
2023/04/06 01:07:11;;;;;;;8.27;5.85;;;;;;;;;;12755010;23;20020;-75
2023/04/06 01:12:19;;;;;;;6.65;4.88;;;;;;;;;;12778814;23;20031;-75
2023/04/06 01:17:19;;;;;;;6.07;5.15;;;;;;;;;;12780737;23;20013;-76
2023/04/06 01:22:20;;;;;;;7.78;5.85;;;;;;;;;;12777549;23;20029;-74
2023/04/06 01:27:30;;;;;;;8.70;6.13;;;;;;;;;;12778572;23;20017;-75
2023/04/06 01:32:51;;;;;;;8.82;5.45;;;;;;;;;;12778280;23;20032;-75
2023/04/06 01:37:59;;;;;;;10.27;5.50;;;;;;;;;;12775812;23;20151;-76
2023/04/06 01:43:05;;;;;;;7.38;5.22;;;;;;;;;;12776640;23;20036;-74
2023/04/06 01:48:18;;;;;;;6.78;5.55;;;;;;;;;;12773217;23;20084;-78
2023/04/06 01:53:19;;;;;;;6.05;5.00;;;;;;;;;;12776822;23;20036;-77
2023/04/06 01:58:20;;;;;;;6.53;5.60;;;;;;;;;;12777519;23;20013;-77
2023/04/06 02:03:21;;;;;;;7.97;5.90;;;;;;;;;;12779251;23;20009;-78
2023/04/06 02:08:25;;;;;;;7.45;5.40;;;;;;;;;;12754920;23;20020;-76
2023/04/06 02:13:26;;;;;;;9.65;5.85;;;;;;;;;;12778122;23;20446;-76
2023/04/06 02:18:28;;;;;;;9.38;6.10;;;;;;;;;;12779002;23;20013;-77
2023/04/06 02:23:29;;;;;;;10.35;6.60;;;;;;;;;;12782242;23;20009;-76
2023/04/06 02:28:31;;;;;;;8.70;5.50;;;;;;;;;;12808074;23;20139;-76
2023/04/06 02:33:35;;;;;;;7.70;5.78;;;;;;;;;;12782857;23;20091;-76
2023/04/06 02:38:36;;;;;;;8.50;6.20;;;;;;;;;;12751384;23;20092;-76
2023/04/06 02:43:38;;;;;;;8.40;5.80;;;;;;;;;;12776838;23;20083;-76
2023/04/06 02:48:50;;;;;;;9.40;6.57;;;;;;;;;;12774671;23;20795;-77
2023/04/06 02:53:51;;;;;;;8.95;6.13;;;;;;;;;;12773175;23;20260;-75
2023/04/06 02:58:53;;;;;;;9.68;6.78;;;;;;;;;;12780021;23;20013;-77
2023/04/06 03:03:56;;;;;;;9.00;6.53;;;;;;;;;;12775758;23;20017;-76
2023/04/06 03:09:00;;;;;;;;;;;;;;;;;;12776577;23;20028;-76
2023/04/06 03:14:03;;;;;;;10.63;7.43;;;;;;;;;;12750032;23;19912;-76
2023/04/06 03:19:03;;;;;;;;;;;;;;;;;;12774717;23;20005;-74
2023/04/06 03:24:09;;;;;;;11.90;7.90;;;;;;;;;;12776861;23;20241;-73
2023/04/06 03:29:10;;;;;;;9.73;7.05;;;;;;;;;;12782285;23;20027;-76
2023/04/06 03:34:10;;;;;;;9.88;6.90;;;;;;;;;;12756964;23;20100;-75
2023/04/06 03:39:12;;;;;;;8.52;7.00;;;;;;;;;;12790907;23;20013;-78
2023/04/06 03:44:16;;;;;;;8.75;6.43;;;;;;;;;;12807738;23;20080;-75
2023/04/06 03:49:18;;;;;;;8.27;6.38;;;;;;;;;;12792926;23;20148;-80
2023/04/06 03:54:22;;;;;;;8.13;6.40;;;;;;;;;;12783635;23;20017;-77
2023/04/06 03:59:26;;;;;;;8.55;6.00;;;;;;;;;;12782487;23;20123;-77
2023/04/06 04:04:27;;;;;;;7.85;5.90;;;;;;;;;;12779651;23;20021;-77
2023/04/06 04:09:28;;;;;;;9.02;5.80;;;;;;;;;;12755677;23;20108;-76
2023/04/06 04:14:28;;;;;;;6.57;5.85;;;;;;;;;;12780062;23;20083;-75
2023/04/06 04:19:29;;;;;;;9.20;6.38;;;;;;;;;;12781881;23;20017;-77
2023/04/06 04:24:31;;;;;;;9.43;6.10;;;;;;;;;;12783509;23;20602;-76
2023/04/06 04:29:32;;;;;;;8.52;6.70;;;;;;;;;;12789203;23;20020;-79
2023/04/06 04:34:40;;;;;;;10.82;7.30;;;;;;;;;;12801740;23;20068;-75
2023/04/06 04:39:42;;;;;;;9.68;6.57;;;;;;;;;;12814703;23;20013;-76
2023/04/06 04:44:45;;;;;;;8.60;6.55;;;;;;;;;;12798521;23;20017;-76
2023/04/06 04:49:46;;;;;;;9.85;6.68;;;;;;;;;;12782538;23;20045;-76
2023/04/06 04:54:51;;;;;;;11.60;6.95;;;;;;;;;;12755549;23;20337;-77
2023/04/06 04:59:58;;;;;;;8.52;6.43;;;;;;;;;;12778763;23;20450;-75
2023/04/06 05:04:59;;;;;;;8.18;6.10;;;;;;;;;;12785333;23;20063;-76
2023/04/06 05:10:02;;;;;;;;;;;;;;;;;;12799956;23;20347;-77
2023/04/06 05:15:08;;;;;;;9.13;6.43;;;;;;;;;;12808229;23;19920;-76
2023/04/06 05:20:09;;;;;;;7.50;6.13;;;;;;;;;;12787449;23;20017;-77
2023/04/06 05:25:19;;;;;;;9.15;6.50;;;;;;;;;;12781414;23;20470;-78
2023/04/06 05:30:23;;;;;;;8.13;6.68;;;;;;;;;;12778795;23;20040;-77
2023/04/06 05:35:25;;;;;;;13.40;7.03;;;;;;;;;;12777926;23;20019;-77
2023/04/06 05:40:30;;;;;;;8.23;6.35;;;;;;;;;;12755497;23;20342;-78
2023/04/06 05:45:30;;;;;;;9.80;6.60;;;;;;;;;;12777809;23;20126;-75
2023/04/06 05:50:32;;;;;;;8.00;6.60;;;;;;;;;;12773582;23;20080;-76
2023/04/06 05:55:33;;;;;;;11.63;8.35;;;;;;;;;;12751061;23;20017;-76
2023/04/06 06:00:45;;;;;;;18.00;11.05;;;;;;;;;;12776523;23;20017;-77
2023/04/06 06:05:49;;;;;;;14.88;9.52;;;;;;;;;;12752165;23;20020;-74
2023/04/06 06:10:56;;;;;;;13.15;8.98;;;;;;;;;;12777221;23;20024;-77
2023/04/06 06:16:00;;;;;;;11.18;7.75;;;;;;;;;;12779905;23;20021;-75
2023/04/06 06:21:02;;;;;;;11.32;7.63;;;;;;;;;;12829341;23;19993;-77
2023/04/06 06:26:08;;;;;;;12.63;7.67;;;;;;;;;;12833187;23;20064;-76
2023/04/06 06:31:10;;;;;;;14.55;8.60;;;;;;;;;;12797187;23;20079;-75
2023/04/06 06:36:10;;;;;;;11.50;7.68;;;;;;;;;;12780475;23;20013;-76
2023/04/06 06:41:12;;;;;;;10.65;7.55;;;;;;;;;;12781738;23;20009;-75
2023/04/06 06:46:12;;;;;;;9.85;6.70;;;;;;;;;;12788216;23;20052;-76
2023/04/06 06:51:14;;;;;;;10.07;7.10;;;;;;;;;;12805617;23;20036;-76
2023/04/06 06:56:15;;;;;;;7.63;5.75;;;;;;;;;;12826775;23;20061;-77
2023/04/06 07:01:15;;;;;;;7.35;5.82;;;;;;;;;;12836162;23;20008;-76
2023/04/06 07:06:16;;;;;;;9.13;6.75;;;;;;;;;;12847725;23;20004;-78
2023/04/06 07:11:17;;;;;;;8.10;6.07;;;;;;;;;;12848273;23;20013;-78
2023/04/06 07:16:17;;;;;;;8.15;5.97;;;;;;;;;;12850582;23;20057;-77
2023/04/06 07:21:21;;;;;;;8.65;6.47;;;;;;;;;;12828144;23;20040;-79
2023/04/06 07:26:22;;;;;;;8.93;6.50;;;;;;;;;;12835127;23;20023;-78
2023/04/06 07:31:24;;;;;;;9.20;6.90;;;;;;;;;;12794570;23;20481;-79
2023/04/06 07:36:25;;;;;;;8.63;6.82;;;;;;;;;;12786386;23;20013;-80
2023/04/06 07:41:25;;;;;;;10.13;7.28;;;;;;;;;;12790145;23;20564;-77
2023/04/06 07:46:28;;;;;;;11.45;7.70;;;;;;;;;;12799239;23;20028;-78
2023/04/06 07:51:29;;;;;;;12.80;8.10;;;;;;;;;;12802204;23;20027;-77
2023/04/06 07:56:30;;;;;;;10.20;7.93;;;;;;;;;;12789791;23;20470;-80
2023/04/06 08:01:33;;;;;;;9.30;7.95;;;;;;;;;;12783228;23;20009;-79
2023/04/06 08:06:34;;;;;;;11.73;8.97;;;;;;;;;;12781277;23;20013;-80
2023/04/06 08:11:37;;;;;;;8.77;7.35;;;;;;;;;;12781441;23;20260;-79
2023/04/06 08:16:37;;;;;;;10.80;8.43;;;;;;;;;;12781466;23;20021;-79
2023/04/06 08:21:39;;;;;;;11.90;7.88;;;;;;;;;;12784497;23;20009;-79
2023/04/06 08:26:39;;;;;;;10.48;8.35;;;;;;;;;;12775004;23;20037;-81
2023/04/06 08:31:40;;;;;;;11.48;8.23;;;;;;;;;;12793919;23;20025;-80
2023/04/06 08:36:41;;;;;;;12.18;8.07;;;;;;;;;;12809139;23;20036;-80
2023/04/06 08:41:43;;;;;;;11.57;8.40;;;;;;;;;;12784741;23;20042;-80
2023/04/06 08:46:43;;;;;;;11.07;8.15;;;;;;;;;;12784707;23;20327;-80
2023/04/06 08:51:44;;;;;;;10.75;7.70;;;;;;;;;;12800715;23;20056;-79
2023/04/06 08:56:45;;;;;;;12.05;8.07;;;;;;;;;;12786812;23;20009;-78
2023/04/06 09:01:46;;;;;;;12.75;8.85;;;;;;;;;;12785651;23;20013;-81
2023/04/06 09:06:49;;;;;;;12.07;8.35;;;;;;;;;;12780452;23;20032;-80
2023/04/06 09:11:51;;;;;;;10.98;8.30;;;;;;;;;;12776196;23;20112;-79
2023/04/06 09:16:51;;;;;;;10.60;7.28;;;;;;;;;;12782708;23;20009;-78
2023/04/06 09:22:01;;;;;;;10.68;7.80;;;;;;;;;;12774782;23;20013;-79
2023/04/06 09:27:01;;;;;;;11.65;8.07;;;;;;;;;;12756333;23;20019;-83
2023/04/06 09:32:06;;;;;;;10.88;7.63;;;;;;;;;;12784096;23;20474;-81
2023/04/06 09:37:13;;;;;;;11.82;7.85;;;;;;;;;;12783063;23;20084;-79
2023/04/06 09:42:24;;;;;;;11.50;8.25;;;;;;;;;;12781528;23;20697;-79
2023/04/06 09:47:26;;;;;;;12.15;8.27;;;;;;;;;;12783040;23;20020;-79
2023/04/06 09:52:31;;;;;;;11.45;7.80;;;;;;;;;;12789070;23;20024;-80
2023/04/06 09:57:36;;;;;;;10.52;7.28;;;;;;;;;;12798206;23;20040;-79
2023/04/06 10:02:49;;;;;;;10.50;7.93;;;;;;;;;;12809041;23;20108;-78
2023/04/06 10:07:50;;;;;;;10.40;8.23;;;;;;;;;;12807459;23;20009;-79
2023/04/06 10:12:51;;;;;;;8.95;8.00;;;;;;;;;;12816611;23;20021;-81
2023/04/06 10:17:52;;;;;;;11.23;7.85;;;;;;;;;;12823213;23;20012;-82
2023/04/06 10:22:59;;;;;;;11.80;8.95;;;;;;;;;;12795367;23;20053;-79
2023/04/06 10:28:12;;;;;;;11.82;8.55;;;;;;;;;;12817029;23;20024;-80
2023/04/06 10:33:14;;;;;;;10.48;8.02;;;;;;;;;;12810377;23;20032;-78
2023/04/06 10:38:20;;;;;;;10.75;8.98;;;;;;;;;;12822063;23;20013;-82
2023/04/06 10:43:23;;;;;;;10.02;8.52;;;;;;;;;;12816818;23;20004;-80
2023/04/06 10:48:23;;;;;;;9.43;8.43;;;;;;;;;;12821916;23;19997;-79
2023/04/06 10:53:26;;;;;;;12.40;9.77;;;;;;;;;;12835453;23;20069;-83
2023/04/06 10:58:27;;;;;;;10.80;9.25;;;;;;;;;;12844683;23;20044;-81
2023/04/06 11:03:29;;;;;;;10.63;9.02;;;;;;;;;;12793711;23;20096;-81
2023/04/06 11:08:31;;;;;;;12.77;8.82;;;;;;;;;;12816821;23;20005;-82
2023/04/06 11:13:42;;;;;;;10.63;8.30;;;;;;;;;;12807861;23;20028;-82
2023/04/06 11:18:52;;;;;;;10.38;7.97;;;;;;;;;;12802626;23;20005;-81
2023/04/06 11:24:03;;;;;;;10.50;8.70;;;;;;;;;;12798595;23;20017;-81
2023/04/06 11:29:03;;;;;;;10.18;8.52;;;;;;;;;;12795571;23;20036;-83
2023/04/06 11:34:11;;;;;;;12.70;8.95;;;;;;;;;;12789881;23;20044;-80
2023/04/06 11:39:13;;;;;;;10.90;9.13;;;;;;;;;;12801729;23;20017;-80
2023/04/06 11:44:13;;;;;;;10.52;9.30;;;;;;;;;;12792172;23;20313;-80
2023/04/06 11:49:15;;;;;;;9.18;8.07;;;;;;;;;;12806541;23;20009;-79
2023/04/06 11:54:16;;;;;;;10.18;9.07;;;;;;;;;;12795674;23;20029;-80
2023/04/06 11:59:17;;;;;;;9.63;8.73;;;;;;;;;;12794515;23;20023;-81
2023/04/06 12:04:20;;;;;;;10.45;8.80;;;;;;;;;;12798698;23;20555;-81
2023/04/06 12:09:21;;;;;;;10.50;9.10;;;;;;;;;;12803352;23;20023;-83
2023/04/06 12:14:24;;;;;;;10.70;9.43;;;;;;;;;;12830520;23;20182;-82
2023/04/06 12:19:25;;;;;;;11.33;9.13;;;;;;;;;;12808854;23;20009;-84
2023/04/06 12:24:28;;;;;;;11.57;9.10;;;;;;;;;;12808344;23;20019;-83
2023/04/06 12:29:30;;;;;;;9.90;8.52;;;;;;;;;;12815816;23;20024;-83
2023/04/06 12:34:32;;;;;;;9.55;8.43;;;;;;;;;;12806103;23;20019;-84
2023/04/06 12:39:35;;;;;;;11.48;8.95;;;;;;;;;;12813003;23;20021;-83
2023/04/06 12:44:36;;;;;;;10.50;8.68;;;;;;;;;;12806855;23;20017;-84
2023/04/06 12:49:38;;;;;;;10.23;8.57;;;;;;;;;;12809186;23;20017;-84
2023/04/06 12:54:39;;;;;;;9.63;8.48;;;;;;;;;;12837694;23;20036;-81
2023/04/06 12:59:44;;;;;;;9.35;7.25;;;;;;;;;;12840279;23;20004;-83
2023/04/06 13:04:44;;;;;;;9.15;7.70;;;;;;;;;;12831188;23;20012;-82
2023/04/06 13:09:47;;;;;;;9.00;8.10;;;;;;;;;;12792756;23;20091;-80
2023/04/06 13:14:50;;;;;;;8.05;7.18;;;;;;;;;;12816169;23;20019;-81
2023/04/06 13:19:53;;;;;;;9.95;8.43;;;;;;;;;;12831392;23;20017;-81
2023/04/06 13:24:54;;;;;;;9.10;7.68;;;;;;;;;;12793767;23;20640;-82
2023/04/06 13:29:55;;;;;;;9.65;8.65;;;;;;;;;;12788851;23;20009;-82
2023/04/06 13:34:57;;;;;;;10.20;9.20;;;;;;;;;;12790842;23;20012;-83
2023/04/06 13:39:57;;;;;;;9.32;7.97;;;;;;;;;;12799215;23;20013;-81
2023/04/06 13:45:02;;;;;;;8.93;8.07;;;;;;;;;;12827874;23;20005;-81
2023/04/06 13:50:05;;;;;;;10.10;8.32;;;;;;;;;;12843654;23;20020;-78
2023/04/06 13:55:05;;;;;;;8.73;7.77;;;;;;;;;;12822215;23;20023;-75
2023/04/06 14:00:06;;;;;;;8.15;7.35;;;;;;;;;;12796737;23;20013;-78
2023/04/06 14:05:07;;;;;;;7.68;6.68;;;;;;;;;;12796601;23;20020;-76
2023/04/06 14:10:13;;;;;;;8.00;7.15;;;;;;;;;;12795868;23;20010;-78
2023/04/06 14:15:13;;;;;;;8.27;7.40;;;;;;;;;;12781688;23;20579;-75
2023/04/06 14:20:15;;;;;;;7.55;6.85;;;;;;;;;;12823481;23;20024;-79
2023/04/06 14:25:19;;;;;;;9.13;7.72;;;;;;;;;;12788830;23;20013;-79
2023/04/06 14:30:20;;;;;;;8.02;6.95;;;;;;;;;;12782442;23;20072;-79
2023/04/06 14:35:20;;;;;;;8.77;7.67;;;;;;;;;;12785412;23;20048;-78
2023/04/06 14:40:21;;;;;;;10.70;7.97;;;;;;;;;;12799486;23;20244;-79
2023/04/06 14:45:22;;;;;;;10.43;7.60;;;;;;;;;;12797299;23;20015;-78
2023/04/06 14:50:22;;;;;;;9.80;7.93;;;;;;;;;;12779332;23;20800;-78
2023/04/06 14:55:23;;;;;;;8.90;7.28;;;;;;;;;;12774911;23;20024;-81
2023/04/06 15:00:23;;;;;;;9.53;8.47;;;;;;;;;;12779167;23;20017;-78
2023/04/06 15:05:25;;;;;;;9.73;8.73;;;;;;;;;;12805474;23;20244;-84
2023/04/06 15:10:25;;;;;;;9.50;8.15;;;;;;;;;;12822983;23;20009;-83
2023/04/06 15:15:27;;;;;;;10.40;8.13;;;;;;;;;;12796428;23;20605;-81
2023/04/06 15:20:28;;;;;;;9.98;8.57;;;;;;;;;;12786997;23;20020;-82
2023/04/06 15:25:30;;;;;;;9.60;8.00;;;;;;;;;;12789779;23;20016;-79
2023/04/06 15:30:31;;;;;;;9.33;8.13;;;;;;;;;;12791825;23;20044;-78
2023/04/06 15:35:33;;;;;;;9.13;8.00;;;;;;;;;;12777722;23;20016;-80
2023/04/06 15:40:41;;;;;;;9.20;7.88;;;;;;;;;;12851961;23;20260;-82
2023/04/06 15:45:43;;;;;;;8.18;6.97;;;;;;;;;;12822653;23;20700;-82
2023/04/06 15:50:44;;;;;;;8.63;7.45;;;;;;;;;;12778004;23;20025;-86
2023/04/06 15:55:44;;;;;;;8.05;7.18;;;;;;;;;;12827296;23;20005;-84
2023/04/06 16:00:45;;;;;;;10.35;8.10;;;;;;;;;;12820909;23;20073;-86
2023/04/06 16:05:46;;;;;;;8.50;7.07;;;;;;;;;;12795068;22;20016;-84
2023/04/06 16:10:51;;;;;;;9.90;7.68;;;;;;;;;;12830321;22;20005;-86
2023/04/06 16:16:03;;;;;;;;;;;;;;;;;;;;;
2023/04/06 16:21:18;;;;;;;8.50;6.93;;;;;;;;;;12686188;22;20025;-86
2023/04/06 16:26:22;;;;;;;8.20;7.25;;;;;;;;;;12830738;23;20017;-85
2023/04/06 16:42:10;;;;;;;8.40;6.80;;;;;;;;;;12809011;22;20757;-84
2023/04/06 16:47:11;;;;;;;8.27;6.55;;;;;;;;;;12823357;23;20009;-86
2023/04/06 16:52:12;;;;;;;9.07;6.50;;;;;;;;;;12819511;23;20072;-85
2023/04/06 16:57:14;;;;;;;10.43;7.00;;;;;;;;;;12834254;23;20012;-86
2023/04/06 17:02:15;;;;;;;8.05;6.45;;;;;;;;;;12839693;23;20012;-84
2023/04/06 17:07:16;;;;;;;8.90;6.25;;;;;;;;;;12839843;23;20008;-84
2023/04/06 17:12:19;;;;;;;8.60;6.68;;;;;;;;;;12826292;22;19997;-86
2023/04/06 17:17:20;;;;;;;7.97;6.45;;;;;;;;;;12841831;23;19993;-82
2023/04/06 17:22:22;;;;;;;10.68;7.55;;;;;;;;;;12832335;23;20013;-83
2023/04/06 17:27:25;;;;;;;10.48;7.82;;;;;;;;;;12807892;23;20027;-80
2023/04/06 17:32:26;;;;;;;8.48;6.47;;;;;;;;;;12789643;22;20017;-82
2023/04/06 17:37:28;;;;;;;10.07;7.15;;;;;;;;;;12727561;22;20017;-82
2023/04/06 17:42:29;;;;;;;10.30;6.50;;;;;;;;;;12832534;23;20088;-81
2023/04/06 17:47:36;;;;;;;10.15;7.53;;;;;;;;;;12829444;22;20267;-81
2023/04/06 17:52:41;;;;;;;11.60;8.15;;;;;;;;;;12828752;23;20028;-81
2023/04/06 17:57:45;;;;;;;16.85;10.30;;;;;;;;;;12824102;23;20009;-81
2023/04/06 18:02:47;;;;;;;14.48;10.10;;;;;;;;;;12804439;23;20005;-81
2023/04/06 18:07:47;;;;;;;13.50;9.80;;;;;;;;;;12815742;22;20036;-82
2023/04/06 18:12:49;;;;;;;11.40;9.02;;;;;;;;;;12833186;23;20275;-81
2023/04/06 18:17:49;;;;;;;9.93;8.20;;;;;;;;;;12831212;22;20005;-81
2023/04/06 18:22:51;;;;;;;12.25;8.40;;;;;;;;;;12833089;23;20035;-82
2023/04/06 18:27:51;;;;;;;10.80;8.32;;;;;;;;;;12814086;22;20011;-81
2023/04/06 18:32:53;;;;;;;11.07;7.65;;;;;;;;;;12823652;23;20107;-82
2023/04/06 18:37:54;;;;;;;10.43;7.43;;;;;;;;;;12803732;23;20032;-81
2023/04/06 18:42:55;;;;;;;12.00;8.20;;;;;;;;;;12822483;23;20255;-84
2023/04/06 18:47:56;;;;;;;15.02;9.70;;;;;;;;;;12820783;23;20013;-80
2023/04/06 18:52:56;;;;;;;15.15;10.10;;;;;;;;;;12773190;23;20498;-80
2023/04/06 18:57:56;;;;;;;16.10;10.03;;;;;;;;;;12779393;23;20064;-79
2023/04/06 19:02:57;;;;;;;20.13;11.57;;;;;;;;;;12808646;23;20343;-81
2023/04/06 19:07:57;;;;;;;14.52;9.23;;;;;;;;;;12782259;23;20268;-80
2023/04/06 19:13:00;;;;;;;14.95;9.90;;;;;;;;;;12794749;23;20021;-86
2023/04/06 19:18:00;;;;;;;16.63;11.70;;;;;;;;;;12775811;23;20023;-81
2023/04/06 19:23:03;;;;;;;14.02;9.85;;;;;;;;;;12785509;23;20040;-81
2023/04/06 19:28:04;;;;;;;18.92;12.35;;;;;;;;;;12800070;23;20120;-81
2023/04/06 19:33:04;;;;;;;13.18;9.77;;;;;;;;;;12806038;23;20091;-82
2023/04/06 19:38:06;;;;;;;17.13;11.15;;;;;;;;;;12796359;23;20009;-86
2023/04/06 19:43:07;;;;;;;13.20;8.70;;;;;;;;;;12769014;23;20534;-84
2023/04/06 19:48:08;;;;;;;11.20;7.93;;;;;;;;;;12807555;23;20013;-83
2023/04/06 19:53:08;;;;;;;11.77;8.30;;;;;;;;;;12785763;23;20032;-81
2023/04/06 19:58:09;;;;;;;12.30;8.00;;;;;;;;;;12801384;23;20039;-80
2023/04/06 20:03:09;;;;;;;12.90;7.72;;;;;;;;;;12822093;23;20002;-84
2023/04/06 20:08:12;;;;;;;13.33;9.00;;;;;;;;;;12815212;22;20008;-87
2023/04/06 20:13:14;;;;;;;10.48;8.15;;;;;;;;;;12818800;23;20016;-82
2023/04/06 20:18:14;;;;;;;10.65;6.93;;;;;;;;;;12815116;22;21202;-84
2023/04/06 20:28:40;;;;;;;9.63;6.47;;;;;;;;;;12776925;23;20017;-85
2023/04/06 20:33:40;;;;;;;10.00;6.70;;;;;;;;;;12741533;23;20021;-82
2023/04/06 20:38:40;;;;;;;9.13;6.40;;;;;;;;;;12731109;23;20020;-83
2023/04/06 20:43:41;;;;;;;9.18;6.63;;;;;;;;;;12764930;23;20061;-83
2023/04/06 20:48:43;;;;;;;8.02;5.95;;;;;;;;;;12731918;23;20002;-82
2023/04/06 20:53:43;;;;;;;8.95;6.88;;;;;;;;;;12745788;23;20025;-85
2023/04/06 20:58:45;;;;;;;10.95;7.90;;;;;;;;;;12756755;23;20005;-86
2023/04/06 21:03:45;;;;;;;13.07;8.85;;;;;;;;;;12735245;23;20001;-83
2023/04/06 21:08:45;;;;;;;14.13;8.82;;;;;;;;;;12765626;23;20040;-82
2023/04/06 21:13:47;;;;;;;10.13;7.82;;;;;;;;;;12752746;22;20972;-83
2023/04/06 21:18:48;;;;;;;12.80;8.13;;;;;;;;;;12844788;23;20020;-84
2023/04/06 21:23:50;;;;;;;14.57;8.45;;;;;;;;;;12808699;23;20017;-82
2023/04/06 21:28:51;;;;;;;10.87;7.50;;;;;;;;;;12796262;23;20017;-83
2023/04/06 21:33:54;;;;;;;11.23;7.65;;;;;;;;;;12800763;23;20624;-83
2023/04/06 21:38:55;;;;;;;11.52;8.27;;;;;;;;;;12824278;23;20095;-84
2023/04/06 21:44:00;;;;;;;12.10;8.60;;;;;;;;;;12826207;23;20009;-85
2023/04/06 21:49:00;;;;;;;12.77;8.15;;;;;;;;;;12805552;23;20032;-83
2023/04/06 21:54:02;;;;;;;11.60;8.00;;;;;;;;;;12821125;23;20397;-84
2023/04/06 21:59:03;;;;;;;13.60;7.78;;;;;;;;;;12822832;23;19997;-85
2023/04/06 22:04:03;;;;;;;10.88;7.35;;;;;;;;;;12832858;22;20012;-84
2023/04/06 22:09:06;;;;;;;9.10;6.93;;;;;;;;;;12798072;23;20009;-82
2023/04/06 22:14:10;;;;;;;11.55;7.75;;;;;;;;;;12813364;23;20017;-79
2023/04/06 22:19:12;;;;;;;10.35;7.43;;;;;;;;;;12805821;23;20025;-81
2023/04/06 22:24:13;;;;;;;10.43;6.90;;;;;;;;;;12788050;23;20017;-81
2023/04/06 22:29:16;;;;;;;11.20;7.63;;;;;;;;;;12806514;23;20017;-82
2023/04/06 22:34:16;;;;;;;13.85;8.60;;;;;;;;;;12815536;23;20013;-81
2023/04/06 22:39:18;;;;;;;13.25;8.30;;;;;;;;;;12804466;23;20028;-82
2023/04/06 22:44:18;;;;;;;13.23;8.73;;;;;;;;;;12811106;23;20001;-84
2023/04/06 22:49:20;;;;;;;12.27;7.90;;;;;;;;;;12835922;23;19998;-83
2023/04/06 22:54:20;;;;;;;10.68;8.27;;;;;;;;;;12838139;23;20100;-81
2023/04/06 22:59:20;;;;;;;11.23;7.43;;;;;;;;;;12804280;23;20544;-81
2023/04/06 23:04:22;;;;;;;10.13;7.93;;;;;;;;;;12777584;23;20720;-80
2023/04/06 23:09:23;;;;;;;12.13;7.70;;;;;;;;;;12782014;23;20017;-83
2023/04/06 23:14:25;;;;;;;9.63;7.28;;;;;;;;;;12786534;23;20040;-85
2023/04/06 23:19:28;;;;;;;14.15;8.35;;;;;;;;;;12839201;23;20020;-86
2023/04/06 23:24:29;;;;;;;13.27;7.78;;;;;;;;;;12845809;23;19997;-83
2023/04/06 23:29:32;;;;;;;9.20;7.07;;;;;;;;;;12848919;23;20032;-82
2023/04/06 23:34:33;;;;;;;10.03;7.73;;;;;;;;;;12845693;23;20017;-82
2023/04/06 23:39:34;;;;;;;11.85;8.32;;;;;;;;;;12837509;23;20004;-82
2023/04/06 23:44:37;;;;;;;10.98;7.60;;;;;;;;;;12838856;23;20001;-83
2023/04/06 23:49:38;;;;;;;13.80;8.53;;;;;;;;;;12843989;23;20065;-82
2023/04/06 23:54:41;;;;;;;11.50;8.07;;;;;;;;;;12844538;23;20001;-86
2023/04/06 23:59:43;;;;;;;10.70;7.53;;;;;;;;;;12809866;23;20017;-82
